sensor_id;sensor_type;location;lat;lon;timestamp;P1;durP1;ratioP1;P2;durP2;ratioP2
5819;SDS011;2936;47.348;9.640;2023-05-16T00:01:27;5.68;;;5.28;;
5819;SDS011;2936;47.348;9.640;2023-05-16T00:03:58;6.07;;;5.60;;
5819;SDS011;2936;47.348;9.640;2023-05-16T00:06:25;5.85;;;5.35;;
5819;SDS011;2936;47.348;9.640;2023-05-16T00:08:52;6.43;;;5.30;;
5819;SDS011;2936;47.348;9.640;2023-05-16T00:11:21;5.93;;;5.60;;
5819;SDS011;2936;47.348;9.640;2023-05-16T00:13:48;5.13;;;4.80;;
5819;SDS011;2936;47.348;9.640;2023-05-16T00:16:16;6.80;;;6.15;;
5819;SDS011;2936;47.348;9.640;2023-05-16T00:18:45;9.23;;;7.07;;
5819;SDS011;2936;47.348;9.640;2023-05-16T00:21:13;6.82;;;5.75;;
5819;SDS011;2936;47.348;9.640;2023-05-16T00:23:41;7.50;;;5.85;;
5819;SDS011;2936;47.348;9.640;2023-05-16T00:26:08;9.45;;;7.45;;
5819;SDS011;2936;47.348;9.640;2023-05-16T00:28:37;13.40;;;7.03;;
5819;SDS011;2936;47.348;9.640;2023-05-16T00:31:04;8.95;;;7.18;;
5819;SDS011;2936;47.348;9.640;2023-05-16T00:33:32;12.00;;;7.88;;
5819;SDS011;2936;47.348;9.640;2023-05-16T00:35:59;15.50;;;8.18;;
5819;SDS011;2936;47.348;9.640;2023-05-16T00:38:27;9.13;;;8.27;;
5819;SDS011;2936;47.348;9.640;2023-05-16T00:40:54;10.38;;;8.57;;
5819;SDS011;2936;47.348;9.640;2023-05-16T00:43:21;9.93;;;8.45;;
5819;SDS011;2936;47.348;9.640;2023-05-16T00:45:50;8.95;;;8.10;;
5819;SDS011;2936;47.348;9.640;2023-05-16T00:48:17;8.80;;;8.00;;
5819;SDS011;2936;47.348;9.640;2023-05-16T00:50:45;8.80;;;7.53;;
5819;SDS011;2936;47.348;9.640;2023-05-16T00:53:13;8.57;;;7.78;;
5819;SDS011;2936;47.348;9.640;2023-05-16T00:55:41;10.00;;;8.88;;
5819;SDS011;2936;47.348;9.640;2023-05-16T00:58:10;10.07;;;9.18;;
5819;SDS011;2936;47.348;9.640;2023-05-16T01:00:38;8.35;;;7.65;;
5819;SDS011;2936;47.348;9.640;2023-05-16T01:03:07;15.55;;;7.97;;
5819;SDS011;2936;47.348;9.640;2023-05-16T01:05:35;10.02;;;7.90;;
5819;SDS011;2936;47.348;9.640;2023-05-16T01:08:02;9.55;;;8.60;;
5819;SDS011;2936;47.348;9.640;2023-05-16T01:10:31;8.85;;;8.00;;
5819;SDS011;2936;47.348;9.640;2023-05-16T01:13:04;8.88;;;8.13;;
5819;SDS011;2936;47.348;9.640;2023-05-16T01:15:37;8.32;;;7.60;;
5819;SDS011;2936;47.348;9.640;2023-05-16T01:18:07;10.57;;;8.80;;
5819;SDS011;2936;47.348;9.640;2023-05-16T01:20:39;10.82;;;8.50;;
5819;SDS011;2936;47.348;9.640;2023-05-16T01:23:15;8.43;;;7.63;;
5819;SDS011;2936;47.348;9.640;2023-05-16T01:25:45;9.65;;;8.65;;
5819;SDS011;2936;47.348;9.640;2023-05-16T01:28:21;8.68;;;7.97;;
5819;SDS011;2936;47.348;9.640;2023-05-16T01:30:49;9.18;;;8.32;;
5819;SDS011;2936;47.348;9.640;2023-05-16T01:33:17;9.30;;;8.30;;
5819;SDS011;2936;47.348;9.640;2023-05-16T01:35:46;9.75;;;8.80;;
5819;SDS011;2936;47.348;9.640;2023-05-16T01:38:17;8.52;;;7.80;;
5819;SDS011;2936;47.348;9.640;2023-05-16T01:40:47;11.05;;;8.38;;
5819;SDS011;2936;47.348;9.640;2023-05-16T01:43:16;13.13;;;8.77;;
5819;SDS011;2936;47.348;9.640;2023-05-16T01:45:49;10.63;;;9.00;;
5819;SDS011;2936;47.348;9.640;2023-05-16T01:48:19;8.95;;;8.05;;
5819;SDS011;2936;47.348;9.640;2023-05-16T01:50:49;11.35;;;9.32;;
5819;SDS011;2936;47.348;9.640;2023-05-16T01:53:19;20.45;;;9.05;;
5819;SDS011;2936;47.348;9.640;2023-05-16T01:55:50;10.80;;;9.23;;
5819;SDS011;2936;47.348;9.640;2023-05-16T01:58:18;11.52;;;8.95;;
5819;SDS011;2936;47.348;9.640;2023-05-16T02:00:47;9.48;;;8.52;;
5819;SDS011;2936;47.348;9.640;2023-05-16T02:03:15;11.63;;;9.15;;
5819;SDS011;2936;47.348;9.640;2023-05-16T02:05:42;9.73;;;8.85;;
5819;SDS011;2936;47.348;9.640;2023-05-16T02:08:10;10.73;;;9.73;;
5819;SDS011;2936;47.348;9.640;2023-05-16T02:10:37;10.85;;;9.25;;
5819;SDS011;2936;47.348;9.640;2023-05-16T02:13:05;10.38;;;9.43;;
5819;SDS011;2936;47.348;9.640;2023-05-16T02:15:32;9.88;;;8.98;;
5819;SDS011;2936;47.348;9.640;2023-05-16T02:18:01;10.18;;;9.23;;
5819;SDS011;2936;47.348;9.640;2023-05-16T02:20:29;14.10;;;9.73;;
5819;SDS011;2936;47.348;9.640;2023-05-16T02:22:57;9.63;;;8.82;;
5819;SDS011;2936;47.348;9.640;2023-05-16T02:25:24;11.07;;;9.98;;
5819;SDS011;2936;47.348;9.640;2023-05-16T02:27:52;10.68;;;9.18;;
5819;SDS011;2936;47.348;9.640;2023-05-16T02:30:19;10.45;;;9.20;;
5819;SDS011;2936;47.348;9.640;2023-05-16T02:32:46;10.20;;;9.30;;
5819;SDS011;2936;47.348;9.640;2023-05-16T02:35:15;10.05;;;9.15;;
5819;SDS011;2936;47.348;9.640;2023-05-16T02:37:42;12.23;;;9.40;;
5819;SDS011;2936;47.348;9.640;2023-05-16T02:40:10;9.43;;;8.50;;
5819;SDS011;2936;47.348;9.640;2023-05-16T02:42:37;10.57;;;9.57;;
5819;SDS011;2936;47.348;9.640;2023-05-16T02:45:05;9.60;;;8.80;;
5819;SDS011;2936;47.348;9.640;2023-05-16T02:47:32;10.90;;;9.90;;
5819;SDS011;2936;47.348;9.640;2023-05-16T02:50:00;11.32;;;10.15;;
5819;SDS011;2936;47.348;9.640;2023-05-16T02:52:29;13.32;;;10.65;;
5819;SDS011;2936;47.348;9.640;2023-05-16T02:54:56;12.18;;;10.27;;
5819;SDS011;2936;47.348;9.640;2023-05-16T02:57:23;11.48;;;10.15;;
5819;SDS011;2936;47.348;9.640;2023-05-16T02:59:51;9.95;;;9.05;;
5819;SDS011;2936;47.348;9.640;2023-05-16T03:02:18;13.52;;;9.95;;
5819;SDS011;2936;47.348;9.640;2023-05-16T03:04:46;11.73;;;10.63;;
5819;SDS011;2936;47.348;9.640;2023-05-16T03:07:13;10.88;;;9.88;;
5819;SDS011;2936;47.348;9.640;2023-05-16T03:09:42;11.27;;;10.15;;
5819;SDS011;2936;47.348;9.640;2023-05-16T03:12:09;18.48;;;10.55;;
5819;SDS011;2936;47.348;9.640;2023-05-16T03:14:36;9.82;;;8.82;;
5819;SDS011;2936;47.348;9.640;2023-05-16T03:17:04;11.07;;;10.07;;
5819;SDS011;2936;47.348;9.640;2023-05-16T03:19:31;10.27;;;9.38;;
5819;SDS011;2936;47.348;9.640;2023-05-16T03:21:59;11.35;;;10.23;;
5819;SDS011;2936;47.348;9.640;2023-05-16T03:24:26;13.60;;;10.73;;
5819;SDS011;2936;47.348;9.640;2023-05-16T03:26:55;11.57;;;9.80;;
5819;SDS011;2936;47.348;9.640;2023-05-16T03:29:23;10.52;;;9.43;;
5819;SDS011;2936;47.348;9.640;2023-05-16T03:31:51;10.90;;;9.65;;
5819;SDS011;2936;47.348;9.640;2023-05-16T03:34:18;11.65;;;9.60;;
5819;SDS011;2936;47.348;9.640;2023-05-16T03:36:46;12.52;;;9.20;;
5819;SDS011;2936;47.348;9.640;2023-05-16T03:39:14;10.77;;;9.68;;
5819;SDS011;2936;47.348;9.640;2023-05-16T03:41:41;12.02;;;10.60;;
5819;SDS011;2936;47.348;9.640;2023-05-16T03:44:10;10.23;;;9.27;;
5819;SDS011;2936;47.348;9.640;2023-05-16T03:46:37;12.70;;;9.43;;
5819;SDS011;2936;47.348;9.640;2023-05-16T03:49:05;10.77;;;9.15;;
5819;SDS011;2936;47.348;9.640;2023-05-16T03:51:32;10.20;;;9.20;;
5819;SDS011;2936;47.348;9.640;2023-05-16T03:53:59;10.63;;;9.50;;
5819;SDS011;2936;47.348;9.640;2023-05-16T03:56:27;12.32;;;10.27;;
5819;SDS011;2936;47.348;9.640;2023-05-16T03:58:54;10.60;;;9.50;;
5819;SDS011;2936;47.348;9.640;2023-05-16T04:01:23;12.68;;;9.90;;
5819;SDS011;2936;47.348;9.640;2023-05-16T04:03:51;11.50;;;10.07;;
5819;SDS011;2936;47.348;9.640;2023-05-16T04:06:18;14.98;;;10.82;;
5819;SDS011;2936;47.348;9.640;2023-05-16T04:08:47;10.43;;;9.40;;
5819;SDS011;2936;47.348;9.640;2023-05-16T04:11:14;15.40;;;10.30;;
5819;SDS011;2936;47.348;9.640;2023-05-16T04:13:42;11.95;;;10.50;;
5819;SDS011;2936;47.348;9.640;2023-05-16T04:16:09;14.27;;;11.10;;
5819;SDS011;2936;47.348;9.640;2023-05-16T04:18:38;11.30;;;10.18;;
5819;SDS011;2936;47.348;9.640;2023-05-16T04:21:05;11.85;;;9.52;;
5819;SDS011;2936;47.348;9.640;2023-05-16T04:23:34;16.25;;;11.07;;
5819;SDS011;2936;47.348;9.640;2023-05-16T04:26:02;20.35;;;13.13;;
5819;SDS011;2936;47.348;9.640;2023-05-16T04:28:29;23.42;;;10.93;;
5819;SDS011;2936;47.348;9.640;2023-05-16T04:30:57;11.38;;;9.90;;
5819;SDS011;2936;47.348;9.640;2023-05-16T04:33:24;13.52;;;10.30;;
5819;SDS011;2936;47.348;9.640;2023-05-16T04:35:53;16.17;;;11.20;;
5819;SDS011;2936;47.348;9.640;2023-05-16T04:38:22;14.52;;;11.75;;
5819;SDS011;2936;47.348;9.640;2023-05-16T04:40:50;17.13;;;11.88;;
5819;SDS011;2936;47.348;9.640;2023-05-16T04:43:17;13.70;;;12.18;;
5819;SDS011;2936;47.348;9.640;2023-05-16T04:45:45;13.65;;;11.50;;
5819;SDS011;2936;47.348;9.640;2023-05-16T04:48:12;15.15;;;11.55;;
5819;SDS011;2936;47.348;9.640;2023-05-16T04:50:40;14.88;;;10.48;;
5819;SDS011;2936;47.348;9.640;2023-05-16T04:53:09;14.10;;;10.38;;
5819;SDS011;2936;47.348;9.640;2023-05-16T04:55:36;16.38;;;12.40;;
5819;SDS011;2936;47.348;9.640;2023-05-16T04:58:06;14.02;;;11.55;;
5819;SDS011;2936;47.348;9.640;2023-05-16T05:00:34;11.85;;;10.65;;
5819;SDS011;2936;47.348;9.640;2023-05-16T05:03:02;16.58;;;10.85;;
5819;SDS011;2936;47.348;9.640;2023-05-16T05:05:30;12.13;;;10.90;;
5819;SDS011;2936;47.348;9.640;2023-05-16T05:07:58;18.17;;;12.88;;
5819;SDS011;2936;47.348;9.640;2023-05-16T05:10:27;15.40;;;10.90;;
5819;SDS011;2936;47.348;9.640;2023-05-16T05:12:55;19.02;;;12.07;;
5819;SDS011;2936;47.348;9.640;2023-05-16T05:15:22;13.02;;;11.18;;
5819;SDS011;2936;47.348;9.640;2023-05-16T05:17:50;14.98;;;12.02;;
5819;SDS011;2936;47.348;9.640;2023-05-16T05:20:17;13.00;;;11.00;;
5819;SDS011;2936;47.348;9.640;2023-05-16T05:22:45;13.93;;;11.25;;
5819;SDS011;2936;47.348;9.640;2023-05-16T05:25:13;15.70;;;11.15;;
5819;SDS011;2936;47.348;9.640;2023-05-16T05:27:41;15.30;;;10.75;;
5819;SDS011;2936;47.348;9.640;2023-05-16T05:30:09;12.90;;;10.60;;
5819;SDS011;2936;47.348;9.640;2023-05-16T05:32:36;13.20;;;11.00;;
5819;SDS011;2936;47.348;9.640;2023-05-16T05:35:15;17.17;;;12.90;;
5819;SDS011;2936;47.348;9.640;2023-05-16T05:37:43;16.30;;;12.63;;
5819;SDS011;2936;47.348;9.640;2023-05-16T05:40:22;32.65;;;12.38;;
5819;SDS011;2936;47.348;9.640;2023-05-16T05:42:56;13.82;;;10.77;;
5819;SDS011;2936;47.348;9.640;2023-05-16T05:45:24;12.23;;;10.75;;
5819;SDS011;2936;47.348;9.640;2023-05-16T05:47:52;14.35;;;9.70;;
5819;SDS011;2936;47.348;9.640;2023-05-16T05:50:20;14.48;;;12.07;;
5819;SDS011;2936;47.348;9.640;2023-05-16T05:52:47;19.98;;;13.55;;
5819;SDS011;2936;47.348;9.640;2023-05-16T05:55:17;13.63;;;11.52;;
5819;SDS011;2936;47.348;9.640;2023-05-16T06:00:53;14.07;;;11.05;;
5819;SDS011;2936;47.348;9.640;2023-05-16T06:03:20;10.90;;;9.75;;
5819;SDS011;2936;47.348;9.640;2023-05-16T06:05:47;13.13;;;10.50;;
5819;SDS011;2936;47.348;9.640;2023-05-16T06:08:16;15.02;;;10.95;;
5819;SDS011;2936;47.348;9.640;2023-05-16T06:10:46;16.30;;;10.27;;
5819;SDS011;2936;47.348;9.640;2023-05-16T06:13:35;17.80;;;10.98;;
5819;SDS011;2936;47.348;9.640;2023-05-16T06:16:04;15.82;;;10.52;;
5819;SDS011;2936;47.348;9.640;2023-05-16T06:18:31;12.82;;;9.48;;
5819;SDS011;2936;47.348;9.640;2023-05-16T06:21:04;11.57;;;9.45;;
5819;SDS011;2936;47.348;9.640;2023-05-16T06:23:32;15.63;;;10.52;;
5819;SDS011;2936;47.348;9.640;2023-05-16T06:26:00;11.57;;;9.95;;
5819;SDS011;2936;47.348;9.640;2023-05-16T06:28:27;11.80;;;9.73;;
5819;SDS011;2936;47.348;9.640;2023-05-16T06:30:55;9.80;;;8.80;;
5819;SDS011;2936;47.348;9.640;2023-05-16T06:33:24;16.73;;;10.65;;
5819;SDS011;2936;47.348;9.640;2023-05-16T06:35:51;16.77;;;10.43;;
5819;SDS011;2936;47.348;9.640;2023-05-16T06:38:19;10.75;;;9.70;;
5819;SDS011;2936;47.348;9.640;2023-05-16T06:40:46;11.02;;;9.88;;
5819;SDS011;2936;47.348;9.640;2023-05-16T06:43:13;11.23;;;10.02;;
5819;SDS011;2936;47.348;9.640;2023-05-16T06:45:51;12.32;;;9.40;;
5819;SDS011;2936;47.348;9.640;2023-05-16T06:48:19;13.73;;;11.63;;
5819;SDS011;2936;47.348;9.640;2023-05-16T06:50:48;11.90;;;10.65;;
5819;SDS011;2936;47.348;9.640;2023-05-16T06:53:16;12.95;;;10.82;;
5819;SDS011;2936;47.348;9.640;2023-05-16T06:55:43;13.55;;;10.40;;
5819;SDS011;2936;47.348;9.640;2023-05-16T06:58:10;11.80;;;10.60;;
5819;SDS011;2936;47.348;9.640;2023-05-16T07:00:38;12.10;;;10.77;;
5819;SDS011;2936;47.348;9.640;2023-05-16T07:03:05;11.38;;;10.27;;
5819;SDS011;2936;47.348;9.640;2023-05-16T07:05:33;10.85;;;9.75;;
5819;SDS011;2936;47.348;9.640;2023-05-16T07:08:01;9.48;;;8.65;;
5819;SDS011;2936;47.348;9.640;2023-05-16T07:10:29;9.15;;;8.23;;
5819;SDS011;2936;47.348;9.640;2023-05-16T07:13:06;11.15;;;10.10;;
5819;SDS011;2936;47.348;9.640;2023-05-16T07:15:33;11.80;;;9.90;;
5819;SDS011;2936;47.348;9.640;2023-05-16T07:18:00;16.75;;;9.88;;
5819;SDS011;2936;47.348;9.640;2023-05-16T07:20:28;12.48;;;10.02;;
5819;SDS011;2936;47.348;9.640;2023-05-16T07:22:55;12.75;;;10.00;;
5819;SDS011;2936;47.348;9.640;2023-05-16T07:25:24;10.10;;;9.10;;
5819;SDS011;2936;47.348;9.640;2023-05-16T07:27:52;10.48;;;9.57;;
5819;SDS011;2936;47.348;9.640;2023-05-16T07:30:19;13.10;;;10.15;;
5819;SDS011;2936;47.348;9.640;2023-05-16T07:32:47;18.73;;;10.50;;
5819;SDS011;2936;47.348;9.640;2023-05-16T07:35:14;13.25;;;9.60;;
5819;SDS011;2936;47.348;9.640;2023-05-16T07:37:41;10.73;;;9.75;;
5819;SDS011;2936;47.348;9.640;2023-05-16T07:40:09;12.57;;;9.40;;
5819;SDS011;2936;47.348;9.640;2023-05-16T07:42:38;11.65;;;10.55;;
5819;SDS011;2936;47.348;9.640;2023-05-16T07:45:05;11.05;;;10.00;;
5819;SDS011;2936;47.348;9.640;2023-05-16T07:47:33;10.90;;;9.32;;
5819;SDS011;2936;47.348;9.640;2023-05-16T07:50:00;14.15;;;10.93;;
5819;SDS011;2936;47.348;9.640;2023-05-16T07:52:28;10.35;;;9.35;;
5819;SDS011;2936;47.348;9.640;2023-05-16T07:54:55;12.60;;;10.45;;
5819;SDS011;2936;47.348;9.640;2023-05-16T07:57:22;10.95;;;9.40;;
5819;SDS011;2936;47.348;9.640;2023-05-16T07:59:52;10.93;;;9.93;;
5819;SDS011;2936;47.348;9.640;2023-05-16T08:02:20;10.90;;;9.82;;
5819;SDS011;2936;47.348;9.640;2023-05-16T08:04:48;11.25;;;10.05;;
5819;SDS011;2936;47.348;9.640;2023-05-16T08:07:16;10.88;;;9.73;;
5819;SDS011;2936;47.348;9.640;2023-05-16T08:09:43;13.57;;;10.90;;
5819;SDS011;2936;47.348;9.640;2023-05-16T08:12:10;15.43;;;10.88;;
5819;SDS011;2936;47.348;9.640;2023-05-16T08:14:38;12.63;;;11.35;;
5819;SDS011;2936;47.348;9.640;2023-05-16T08:17:07;11.80;;;10.15;;
5819;SDS011;2936;47.348;9.640;2023-05-16T08:19:35;10.50;;;9.48;;
5819;SDS011;2936;47.348;9.640;2023-05-16T08:22:02;12.30;;;10.68;;
5819;SDS011;2936;47.348;9.640;2023-05-16T08:24:30;11.93;;;10.73;;
5819;SDS011;2936;47.348;9.640;2023-05-16T08:26:57;13.90;;;11.18;;
5819;SDS011;2936;47.348;9.640;2023-05-16T08:29:24;13.05;;;11.02;;
5819;SDS011;2936;47.348;9.640;2023-05-16T08:31:52;13.05;;;11.65;;
5819;SDS011;2936;47.348;9.640;2023-05-16T08:34:20;21.10;;;12.35;;
5819;SDS011;2936;47.348;9.640;2023-05-16T08:36:48;14.20;;;12.43;;
5819;SDS011;2936;47.348;9.640;2023-05-16T08:39:15;17.02;;;12.90;;
5819;SDS011;2936;47.348;9.640;2023-05-16T08:41:43;20.33;;;13.77;;
5819;SDS011;2936;47.348;9.640;2023-05-16T08:44:10;29.95;;;18.50;;
5819;SDS011;2936;47.348;9.640;2023-05-16T08:46:45;23.98;;;18.95;;
5819;SDS011;2936;47.348;9.640;2023-05-16T08:49:17;25.08;;;19.35;;
5819;SDS011;2936;47.348;9.640;2023-05-16T08:51:46;22.83;;;18.90;;
5819;SDS011;2936;47.348;9.640;2023-05-16T08:54:14;26.15;;;20.00;;
5819;SDS011;2936;47.348;9.640;2023-05-16T08:56:42;37.05;;;20.25;;
5819;SDS011;2936;47.348;9.640;2023-05-16T08:59:10;24.40;;;19.63;;
5819;SDS011;2936;47.348;9.640;2023-05-16T09:01:38;34.35;;;21.27;;
5819;SDS011;2936;47.348;9.640;2023-05-16T09:04:05;23.83;;;20.15;;
5819;SDS011;2936;47.348;9.640;2023-05-16T09:06:33;24.70;;;19.60;;
5819;SDS011;2936;47.348;9.640;2023-05-16T09:09:02;22.38;;;18.52;;
5819;SDS011;2936;47.348;9.640;2023-05-16T09:11:32;24.77;;;18.83;;
5819;SDS011;2936;47.348;9.640;2023-05-16T09:13:59;26.88;;;18.58;;
5819;SDS011;2936;47.348;9.640;2023-05-16T09:16:27;25.00;;;19.20;;
5819;SDS011;2936;47.348;9.640;2023-05-16T09:18:56;26.00;;;19.83;;
5819;SDS011;2936;47.348;9.640;2023-05-16T09:21:25;25.23;;;20.00;;
5819;SDS011;2936;47.348;9.640;2023-05-16T09:23:53;25.92;;;19.77;;
5819;SDS011;2936;47.348;9.640;2023-05-16T09:26:22;24.67;;;20.30;;
5819;SDS011;2936;47.348;9.640;2023-05-16T09:28:52;26.83;;;20.35;;
5819;SDS011;2936;47.348;9.640;2023-05-16T09:31:20;25.33;;;21.13;;
5819;SDS011;2936;47.348;9.640;2023-05-16T09:33:50;27.80;;;22.02;;
5819;SDS011;2936;47.348;9.640;2023-05-16T09:36:17;29.48;;;21.65;;
5819;SDS011;2936;47.348;9.640;2023-05-16T09:38:45;28.30;;;21.02;;
5819;SDS011;2936;47.348;9.640;2023-05-16T09:41:13;41.33;;;24.38;;
5819;SDS011;2936;47.348;9.640;2023-05-16T09:43:42;27.85;;;21.58;;
5819;SDS011;2936;47.348;9.640;2023-05-16T09:46:11;33.03;;;24.33;;
5819;SDS011;2936;47.348;9.640;2023-05-16T09:48:39;30.10;;;22.00;;
5819;SDS011;2936;47.348;9.640;2023-05-16T09:51:08;31.85;;;23.10;;
5819;SDS011;2936;47.348;9.640;2023-05-16T09:53:38;39.17;;;24.27;;
5819;SDS011;2936;47.348;9.640;2023-05-16T09:56:06;32.85;;;23.88;;
5819;SDS011;2936;47.348;9.640;2023-05-16T09:58:34;33.30;;;23.58;;
5819;SDS011;2936;47.348;9.640;2023-05-16T10:01:04;37.83;;;23.90;;
5819;SDS011;2936;47.348;9.640;2023-05-16T10:03:33;30.83;;;23.70;;
5819;SDS011;2936;47.348;9.640;2023-05-16T10:06:01;36.92;;;25.95;;
5819;SDS011;2936;47.348;9.640;2023-05-16T10:08:30;31.50;;;25.08;;
5819;SDS011;2936;47.348;9.640;2023-05-16T10:11:00;40.63;;;25.85;;
5819;SDS011;2936;47.348;9.640;2023-05-16T10:13:28;33.13;;;24.50;;
5819;SDS011;2936;47.348;9.640;2023-05-16T10:15:57;32.00;;;25.63;;
5819;SDS011;2936;47.348;9.640;2023-05-16T10:18:28;30.95;;;23.65;;
5819;SDS011;2936;47.348;9.640;2023-05-16T10:20:56;32.45;;;24.77;;
5819;SDS011;2936;47.348;9.640;2023-05-16T10:23:29;36.70;;;25.63;;
5819;SDS011;2936;47.348;9.640;2023-05-16T10:26:00;38.08;;;26.35;;
5819;SDS011;2936;47.348;9.640;2023-05-16T10:28:28;36.92;;;26.58;;
5819;SDS011;2936;47.348;9.640;2023-05-16T10:30:57;31.17;;;22.20;;
5819;SDS011;2936;47.348;9.640;2023-05-16T10:33:27;35.08;;;25.35;;
5819;SDS011;2936;47.348;9.640;2023-05-16T10:35:55;29.83;;;23.95;;
5819;SDS011;2936;47.348;9.640;2023-05-16T10:38:24;37.55;;;25.10;;
5819;SDS011;2936;47.348;9.640;2023-05-16T10:40:52;34.45;;;24.85;;
5819;SDS011;2936;47.348;9.640;2023-05-16T10:43:24;35.53;;;24.60;;
5819;SDS011;2936;47.348;9.640;2023-05-16T10:45:55;30.88;;;22.08;;
5819;SDS011;2936;47.348;9.640;2023-05-16T10:48:31;30.95;;;22.92;;
5819;SDS011;2936;47.348;9.640;2023-05-16T10:50:58;41.65;;;23.10;;
5819;SDS011;2936;47.348;9.640;2023-05-16T10:53:30;32.78;;;23.95;;
5819;SDS011;2936;47.348;9.640;2023-05-16T10:56:08;34.70;;;25.10;;
5819;SDS011;2936;47.348;9.640;2023-05-16T10:58:42;30.50;;;22.80;;
5819;SDS011;2936;47.348;9.640;2023-05-16T11:01:17;32.95;;;22.50;;
5819;SDS011;2936;47.348;9.640;2023-05-16T11:04:00;35.42;;;24.25;;
5819;SDS011;2936;47.348;9.640;2023-05-16T11:06:28;34.05;;;21.85;;
5819;SDS011;2936;47.348;9.640;2023-05-16T11:08:57;27.45;;;19.80;;
5819;SDS011;2936;47.348;9.640;2023-05-16T11:11:41;26.65;;;18.27;;
5819;SDS011;2936;47.348;9.640;2023-05-16T11:14:16;20.65;;;16.20;;
5819;SDS011;2936;47.348;9.640;2023-05-16T11:16:47;24.50;;;17.27;;
5819;SDS011;2936;47.348;9.640;2023-05-16T11:19:27;19.10;;;16.20;;
5819;SDS011;2936;47.348;9.640;2023-05-16T11:22:05;17.90;;;15.60;;
5819;SDS011;2936;47.348;9.640;2023-05-16T11:24:33;20.27;;;16.15;;
5819;SDS011;2936;47.348;9.640;2023-05-16T11:27:00;18.40;;;16.50;;
5819;SDS011;2936;47.348;9.640;2023-05-16T11:29:30;25.75;;;17.55;;
5819;SDS011;2936;47.348;9.640;2023-05-16T11:31:58;18.95;;;16.85;;
5819;SDS011;2936;47.348;9.640;2023-05-16T11:34:27;23.42;;;19.02;;
5819;SDS011;2936;47.348;9.640;2023-05-16T11:36:54;21.17;;;17.25;;
5819;SDS011;2936;47.348;9.640;2023-05-16T11:39:22;21.48;;;17.95;;
5819;SDS011;2936;47.348;9.640;2023-05-16T11:41:50;26.10;;;21.00;;
5819;SDS011;2936;47.348;9.640;2023-05-16T11:44:17;32.35;;;22.65;;
5819;SDS011;2936;47.348;9.640;2023-05-16T11:46:45;29.35;;;24.08;;
5819;SDS011;2936;47.348;9.640;2023-05-16T11:49:12;27.88;;;22.98;;
5819;SDS011;2936;47.348;9.640;2023-05-16T11:51:42;30.88;;;22.38;;
5819;SDS011;2936;47.348;9.640;2023-05-16T11:54:10;28.45;;;22.50;;
5819;SDS011;2936;47.348;9.640;2023-05-16T11:56:38;30.60;;;24.48;;
5819;SDS011;2936;47.348;9.640;2023-05-16T11:59:06;30.67;;;25.30;;
5819;SDS011;2936;47.348;9.640;2023-05-16T12:01:35;35.42;;;26.65;;
5819;SDS011;2936;47.348;9.640;2023-05-16T12:04:06;34.28;;;25.90;;
5819;SDS011;2936;47.348;9.640;2023-05-16T12:06:36;41.42;;;25.92;;
5819;SDS011;2936;47.348;9.640;2023-05-16T12:09:12;42.72;;;28.10;;
5819;SDS011;2936;47.348;9.640;2023-05-16T12:11:40;39.50;;;28.17;;
5819;SDS011;2936;47.348;9.640;2023-05-16T12:14:11;43.75;;;29.40;;
5819;SDS011;2936;47.348;9.640;2023-05-16T12:16:41;38.95;;;27.45;;
5819;SDS011;2936;47.348;9.640;2023-05-16T12:19:10;42.45;;;31.58;;
5819;SDS011;2936;47.348;9.640;2023-05-16T12:21:44;44.33;;;30.88;;
5819;SDS011;2936;47.348;9.640;2023-05-16T12:24:14;45.78;;;30.60;;
5819;SDS011;2936;47.348;9.640;2023-05-16T12:26:42;51.35;;;32.45;;
5819;SDS011;2936;47.348;9.640;2023-05-16T12:29:10;44.70;;;32.50;;
5819;SDS011;2936;47.348;9.640;2023-05-16T12:31:39;47.03;;;32.65;;
5819;SDS011;2936;47.348;9.640;2023-05-16T12:34:16;39.47;;;28.85;;
5819;SDS011;2936;47.348;9.640;2023-05-16T12:36:46;39.03;;;27.58;;
5819;SDS011;2936;47.348;9.640;2023-05-16T12:39:18;46.85;;;32.35;;
5819;SDS011;2936;47.348;9.640;2023-05-16T12:41:48;43.53;;;29.45;;
5819;SDS011;2936;47.348;9.640;2023-05-16T12:44:16;42.85;;;28.27;;
5819;SDS011;2936;47.348;9.640;2023-05-16T12:46:44;40.97;;;29.75;;
5819;SDS011;2936;47.348;9.640;2023-05-16T12:49:13;37.90;;;29.70;;
5819;SDS011;2936;47.348;9.640;2023-05-16T12:51:47;39.38;;;29.52;;
5819;SDS011;2936;47.348;9.640;2023-05-16T12:54:14;38.28;;;28.15;;
5819;SDS011;2936;47.348;9.640;2023-05-16T12:56:43;38.28;;;27.90;;
5819;SDS011;2936;47.348;9.640;2023-05-16T12:59:11;34.75;;;27.63;;
5819;SDS011;2936;47.348;9.640;2023-05-16T13:01:39;31.25;;;26.30;;
5819;SDS011;2936;47.348;9.640;2023-05-16T13:04:06;35.17;;;25.05;;
5819;SDS011;2936;47.348;9.640;2023-05-16T13:06:38;36.80;;;27.10;;
5819;SDS011;2936;47.348;9.640;2023-05-16T13:09:07;35.25;;;27.90;;
5819;SDS011;2936;47.348;9.640;2023-05-16T13:11:37;34.97;;;27.42;;
5819;SDS011;2936;47.348;9.640;2023-05-16T13:14:07;36.03;;;28.95;;
5819;SDS011;2936;47.348;9.640;2023-05-16T13:16:37;40.08;;;31.23;;
5819;SDS011;2936;47.348;9.640;2023-05-16T13:19:04;38.92;;;29.85;;
5819;SDS011;2936;47.348;9.640;2023-05-16T13:21:32;42.67;;;30.42;;
5819;SDS011;2936;47.348;9.640;2023-05-16T13:23:59;44.78;;;30.95;;
5819;SDS011;2936;47.348;9.640;2023-05-16T13:26:27;42.70;;;31.90;;
5819;SDS011;2936;47.348;9.640;2023-05-16T13:28:55;40.97;;;30.20;;
5819;SDS011;2936;47.348;9.640;2023-05-16T13:31:24;43.65;;;32.30;;
5819;SDS011;2936;47.348;9.640;2023-05-16T13:33:51;42.80;;;31.55;;
5819;SDS011;2936;47.348;9.640;2023-05-16T13:36:19;47.03;;;31.33;;
5819;SDS011;2936;47.348;9.640;2023-05-16T13:38:46;45.75;;;30.90;;
5819;SDS011;2936;47.348;9.640;2023-05-16T13:41:14;43.80;;;30.95;;
5819;SDS011;2936;47.348;9.640;2023-05-16T13:43:41;39.13;;;29.15;;
5819;SDS011;2936;47.348;9.640;2023-05-16T13:46:09;43.83;;;29.10;;
5819;SDS011;2936;47.348;9.640;2023-05-16T13:48:38;37.58;;;27.10;;
5819;SDS011;2936;47.348;9.640;2023-05-16T13:51:06;44.33;;;28.80;;
5819;SDS011;2936;47.348;9.640;2023-05-16T13:53:35;41.95;;;29.35;;
5819;SDS011;2936;47.348;9.640;2023-05-16T13:56:03;39.97;;;26.92;;
5819;SDS011;2936;47.348;9.640;2023-05-16T13:58:31;38.72;;;27.83;;
5819;SDS011;2936;47.348;9.640;2023-05-16T14:00:58;45.97;;;33.45;;
5819;SDS011;2936;47.348;9.640;2023-05-16T14:03:26;45.13;;;31.58;;
5819;SDS011;2936;47.348;9.640;2023-05-16T14:05:54;44.75;;;30.25;;
5819;SDS011;2936;47.348;9.640;2023-05-16T14:08:22;46.60;;;30.88;;
5819;SDS011;2936;47.348;9.640;2023-05-16T14:10:49;41.42;;;29.42;;
5819;SDS011;2936;47.348;9.640;2023-05-16T14:13:17;37.92;;;30.35;;
5819;SDS011;2936;47.348;9.640;2023-05-16T14:15:45;36.95;;;27.40;;
5819;SDS011;2936;47.348;9.640;2023-05-16T14:18:13;38.47;;;27.92;;
5819;SDS011;2936;47.348;9.640;2023-05-16T14:20:40;36.72;;;25.35;;
5819;SDS011;2936;47.348;9.640;2023-05-16T14:23:09;35.22;;;26.98;;
5819;SDS011;2936;47.348;9.640;2023-05-16T14:25:37;45.47;;;28.70;;
5819;SDS011;2936;47.348;9.640;2023-05-16T14:28:04;41.17;;;29.08;;
5819;SDS011;2936;47.348;9.640;2023-05-16T14:30:31;37.92;;;28.17;;
5819;SDS011;2936;47.348;9.640;2023-05-16T14:32:59;37.20;;;26.20;;
5819;SDS011;2936;47.348;9.640;2023-05-16T14:35:27;31.55;;;22.85;;
5819;SDS011;2936;47.348;9.640;2023-05-16T14:37:55;36.70;;;25.25;;
5819;SDS011;2936;47.348;9.640;2023-05-16T14:40:24;30.25;;;23.95;;
5819;SDS011;2936;47.348;9.640;2023-05-16T14:42:53;31.17;;;23.35;;
5819;SDS011;2936;47.348;9.640;2023-05-16T14:45:21;36.25;;;25.15;;
5819;SDS011;2936;47.348;9.640;2023-05-16T14:47:48;34.65;;;24.08;;
5819;SDS011;2936;47.348;9.640;2023-05-16T14:50:16;39.75;;;24.77;;
5819;SDS011;2936;47.348;9.640;2023-05-16T14:58:52;30.35;;;22.90;;
5819;SDS011;2936;47.348;9.640;2023-05-16T15:01:19;29.58;;;20.20;;
5819;SDS011;2936;47.348;9.640;2023-05-16T15:03:47;24.05;;;19.50;;
5819;SDS011;2936;47.348;9.640;2023-05-16T15:06:14;20.48;;;16.67;;
5819;SDS011;2936;47.348;9.640;2023-05-16T15:08:41;27.33;;;18.95;;
5819;SDS011;2936;47.348;9.640;2023-05-16T15:11:09;23.70;;;19.23;;